Time;durP1;ratioP1;P1;durP2;ratioP2;P2;SDS_P1;SDS_P2;PMS_P1;PMS_P2;Temp;Humidity;BMP_temperature;BMP_pressure;BME280_temperature;BME280_humidity;BME280_pressure;Samples;Min_cycle;Max_cycle;Signal;HPM_P1;HPM_P2
2022/11/14 00:00:30;;;;;;;25.10;13.52;;;;;;;;;;5077279;28;20075;-90
2022/11/14 00:03:01;;;;;;;21.90;12.90;;;;;;;;;;5077422;28;20044;-90
2022/11/14 00:05:29;;;;;;;22.15;13.82;;;;;;;;;;5077222;28;20459;-90
2022/11/14 00:07:57;;;;;;;21.83;13.23;;;;;;;;;;5077047;28;20051;-90
2022/11/14 00:10:25;;;;;;;22.95;13.07;;;;;;;;;;5060311;28;20143;-90
2022/11/14 00:12:52;;;;;;;23.23;13.55;;;;;;;;;;5094638;28;20044;-90
2022/11/14 00:15:19;;;;;;;26.30;13.57;;;;;;;;;;5076908;28;20062;-90
2022/11/14 00:17:47;;;;;;;19.85;12.43;;;;;;;;;;5076901;28;20048;-89
2022/11/14 00:20:16;;;;;;;21.15;13.00;;;;;;;;;;5077307;28;20101;-90
2022/11/14 00:22:43;;;;;;;22.17;12.88;;;;;;;;;;5077037;28;20056;-90
2022/11/14 00:25:11;;;;;;;23.70;14.00;;;;;;;;;;5076562;28;20048;-90
2022/11/14 00:27:38;;;;;;;25.42;13.75;;;;;;;;;;5076839;28;20502;-90
2022/11/14 00:30:06;;;;;;;24.42;13.55;;;;;;;;;;5076800;28;20484;-90
2022/11/14 00:32:33;;;;;;;20.20;13.30;;;;;;;;;;5094632;28;20052;-89
2022/11/14 00:35:01;;;;;;;20.85;12.68;;;;;;;;;;5076272;28;20519;-90
2022/11/14 00:37:28;;;;;;;20.88;12.82;;;;;;;;;;5094191;28;20052;-90
2022/11/14 00:39:55;;;;;;;21.38;12.95;;;;;;;;;;5094440;28;20052;-90
2022/11/14 00:42:22;;;;;;;21.42;11.90;;;;;;;;;;5076972;28;20044;-90
2022/11/14 00:44:50;;;;;;;20.90;12.00;;;;;;;;;;5094176;28;20044;-90
2022/11/14 00:47:17;;;;;;;21.27;12.70;;;;;;;;;;5076593;28;20051;-90
2022/11/14 00:49:44;;;;;;;22.73;13.05;;;;;;;;;;5076157;28;20055;-89
2022/11/14 00:52:11;;;;;;;22.27;12.07;;;;;;;;;;5076470;28;20048;-90
2022/11/14 00:54:38;;;;;;;21.10;12.40;;;;;;;;;;5076461;28;20444;-90
2022/11/14 00:57:06;;;;;;;19.63;11.95;;;;;;;;;;5076434;28;20052;-90
2022/11/14 00:59:33;;;;;;;18.52;11.48;;;;;;;;;;5076584;28;20056;-89
2022/11/14 01:02:01;;;;;;;21.45;11.98;;;;;;;;;;5076258;28;20064;-90
2022/11/14 01:04:28;;;;;;;19.80;12.77;;;;;;;;;;5077490;28;20056;-90
2022/11/14 01:06:55;;;;;;;19.40;11.93;;;;;;;;;;5076693;28;20055;-90
2022/11/14 01:09:23;;;;;;;20.95;12.25;;;;;;;;;;5076072;28;20054;-90
2022/11/14 01:11:50;;;;;;;19.67;12.23;;;;;;;;;;5093631;28;20058;-90
2022/11/14 01:14:17;;;;;;;19.50;12.23;;;;;;;;;;5075774;28;20484;-90
2022/11/14 01:16:44;;;;;;;21.85;12.40;;;;;;;;;;5076049;28;20047;-90
2022/11/14 01:19:12;;;;;;;21.77;12.13;;;;;;;;;;5076494;28;20457;-90
2022/11/14 01:21:39;;;;;;;22.15;11.77;;;;;;;;;;5076393;28;20040;-91
2022/11/14 01:24:06;;;;;;;20.48;11.38;;;;;;;;;;5093531;28;20129;-90
2022/11/14 01:26:35;;;;;;;22.30;12.63;;;;;;;;;;5093559;28;20048;-89
2022/11/14 01:29:02;;;;;;;17.20;11.60;;;;;;;;;;5093757;28;20044;-89
2022/11/14 01:31:29;;;;;;;23.13;12.45;;;;;;;;;;5075842;28;20113;-90
2022/11/14 01:33:57;;;;;;;21.13;12.10;;;;;;;;;;5091846;28;20055;-89
2022/11/14 01:36:24;;;;;;;18.75;11.93;;;;;;;;;;5076092;28;20047;-90
2022/11/14 01:38:52;;;;;;;19.88;11.82;;;;;;;;;;5075976;28;20047;-90
2022/11/14 01:41:20;;;;;;;22.48;11.82;;;;;;;;;;5076254;28;20495;-90
2022/11/14 01:43:47;;;;;;;19.95;12.05;;;;;;;;;;5076144;28;20044;-89
2022/11/14 01:46:29;;;;;;;18.60;11.77;;;;;;;;;;5075931;28;20172;-89
2022/11/14 01:48:59;;;;;;;17.55;11.18;;;;;;;;;;5075678;28;20495;-90
2022/11/14 01:51:36;;;;;;;23.90;12.43;;;;;;;;;;5093358;28;20554;-90
2022/11/14 01:54:05;;;;;;;20.33;12.38;;;;;;;;;;5075498;28;20052;-90
2022/11/14 01:56:36;;;;;;;19.38;11.90;;;;;;;;;;5075431;28;20050;-90
2022/11/14 01:59:08;;;;;;;19.63;11.15;;;;;;;;;;5093305;28;20052;-89
2022/11/14 02:01:38;;;;;;;19.23;11.18;;;;;;;;;;5075829;28;20149;-90
2022/11/14 02:04:06;;;;;;;19.42;12.30;;;;;;;;;;5075753;28;20048;-90
2022/11/14 02:06:40;;;;;;;20.80;11.73;;;;;;;;;;5076705;28;20052;-90
2022/11/14 02:09:07;;;;;;;18.77;12.73;;;;;;;;;;5075389;28;20530;-90
2022/11/14 02:11:36;;;;;;;22.92;13.15;;;;;;;;;;5071986;28;20411;-90
2022/11/14 02:14:04;;;;;;;19.20;12.30;;;;;;;;;;5072095;28;20048;-90
2022/11/14 02:16:31;;;;;;;20.52;11.48;;;;;;;;;;5072564;28;20052;-90
2022/11/14 02:18:58;;;;;;;18.30;11.68;;;;;;;;;;5072730;28;20500;-90
2022/11/14 02:21:26;;;;;;;20.52;12.25;;;;;;;;;;5077110;28;20067;-89
2022/11/14 02:23:53;;;;;;;18.65;12.10;;;;;;;;;;5078740;28;20500;-90
2022/11/14 02:26:21;;;;;;;17.42;11.10;;;;;;;;;;5075658;28;20100;-89
2022/11/14 02:28:49;;;;;;;21.77;12.88;;;;;;;;;;5075649;28;20135;-88
2022/11/14 02:31:16;;;;;;;24.85;13.90;;;;;;;;;;5075790;28;20381;-89
2022/11/14 02:33:43;;;;;;;20.48;11.63;;;;;;;;;;5075588;28;20063;-89
2022/11/14 02:36:11;;;;;;;18.05;11.80;;;;;;;;;;5076421;28;20049;-89
2022/11/14 02:38:38;;;;;;;21.33;11.60;;;;;;;;;;5075522;28;20049;-89
2022/11/14 02:41:05;;;;;;;24.50;13.18;;;;;;;;;;5075692;28;20142;-90
2022/11/14 02:43:32;;;;;;;27.95;15.02;;;;;;;;;;5075425;28;20059;-89
2022/11/14 02:45:59;;;;;;;27.10;15.18;;;;;;;;;;5076199;28;20087;-89
2022/11/14 02:48:31;;;;;;;25.77;14.38;;;;;;;;;;5075348;28;20052;-90
2022/11/14 02:50:59;;;;;;;22.33;14.57;;;;;;;;;;5074897;28;20056;-89
2022/11/14 02:53:26;;;;;;;17.83;11.70;;;;;;;;;;5075336;28;20135;-90
2022/11/14 02:55:53;;;;;;;22.23;12.27;;;;;;;;;;5075016;28;20060;-90
2022/11/14 02:58:20;;;;;;;18.95;12.23;;;;;;;;;;5074870;28;20055;-90
2022/11/14 03:00:48;;;;;;;17.42;11.70;;;;;;;;;;5074941;28;20059;-90
2022/11/14 03:03:35;;;;;;;17.85;12.15;;;;;;;;;;5075035;28;20496;-89
2022/11/14 03:06:03;;;;;;;20.50;11.65;;;;;;;;;;5074777;28;20131;-90
2022/11/14 03:08:30;;;;;;;21.85;11.90;;;;;;;;;;5075060;28;20059;-90
2022/11/14 03:11:03;;;;;;;22.90;12.85;;;;;;;;;;5074565;28;20107;-89
2022/11/14 03:13:31;;;;;;;20.52;12.18;;;;;;;;;;5074801;28;20056;-89
2022/11/14 03:16:03;;;;;;;20.63;12.50;;;;;;;;;;5074568;28;20125;-89
2022/11/14 03:18:31;;;;;;;23.33;12.30;;;;;;;;;;5074616;28;20060;-89
2022/11/14 03:21:05;;;;;;;21.77;12.25;;;;;;;;;;5074746;28;20051;-90
2022/11/14 03:23:32;;;;;;;20.33;12.00;;;;;;;;;;5074769;28;20049;-89
2022/11/14 03:26:01;;;;;;;27.75;13.35;;;;;;;;;;5074453;28;20412;-89
2022/11/14 03:28:28;;;;;;;21.75;12.35;;;;;;;;;;5074566;28;20048;-89
2022/11/14 03:30:56;;;;;;;23.08;12.30;;;;;;;;;;5073704;28;20110;-89
2022/11/14 03:33:23;;;;;;;21.48;13.00;;;;;;;;;;5074872;28;20052;-89
2022/11/14 03:35:51;;;;;;;22.90;12.88;;;;;;;;;;5073766;28;20063;-89
2022/11/14 03:38:21;;;;;;;25.83;13.07;;;;;;;;;;5074460;28;20076;-89
2022/11/14 03:40:49;;;;;;;24.02;13.38;;;;;;;;;;5073995;28;20559;-89
2022/11/14 03:43:17;;;;;;;22.38;12.63;;;;;;;;;;5074368;28;20059;-89
2022/11/14 03:45:44;;;;;;;26.65;15.00;;;;;;;;;;5074286;28;20048;-89
2022/11/14 03:48:12;;;;;;;26.95;15.90;;;;;;;;;;5074292;28;20052;-89
2022/11/14 03:50:40;;;;;;;36.55;18.42;;;;;;;;;;5074495;28;20057;-89
2022/11/14 03:53:07;;;;;;;28.67;16.23;;;;;;;;;;5074241;28;20072;-89
2022/11/14 03:55:34;;;;;;;26.20;13.88;;;;;;;;;;5074289;28;20466;-89
2022/11/14 03:58:02;;;;;;;23.67;12.75;;;;;;;;;;5074051;28;20131;-89
2022/11/14 04:00:29;;;;;;;24.23;13.98;;;;;;;;;;5074130;28;20044;-88
2022/11/14 04:02:57;;;;;;;22.30;14.45;;;;;;;;;;5073859;28;20048;-88
2022/11/14 04:05:24;;;;;;;23.02;12.88;;;;;;;;;;5073636;28;20045;-89
2022/11/14 04:07:51;;;;;;;22.35;13.50;;;;;;;;;;5073891;28;20048;-89
2022/11/14 04:10:19;;;;;;;24.48;13.68;;;;;;;;;;5073443;28;20522;-88
2022/11/14 04:12:50;;;;;;;24.17;14.05;;;;;;;;;;5073758;28;20058;-89
2022/11/14 04:15:17;;;;;;;22.80;13.38;;;;;;;;;;5074079;28;20405;-89
2022/11/14 04:17:45;;;;;;;21.88;13.73;;;;;;;;;;5074353;28;20045;-89
2022/11/14 04:20:13;;;;;;;27.00;14.60;;;;;;;;;;5073560;28;20049;-88
2022/11/14 04:22:40;;;;;;;23.73;13.15;;;;;;;;;;5073432;28;20115;-89
2022/11/14 04:25:08;;;;;;;29.40;16.25;;;;;;;;;;5074318;28;20055;-89
2022/11/14 04:27:36;;;;;;;37.38;20.23;;;;;;;;;;5073254;28;20416;-89
2022/11/14 04:30:05;;;;;;;31.13;17.20;;;;;;;;;;5073414;28;20052;-89
2022/11/14 04:32:32;;;;;;;29.67;18.80;;;;;;;;;;5073483;28;20048;-90
2022/11/14 04:35:00;;;;;;;28.50;16.40;;;;;;;;;;5072894;28;20048;-89
2022/11/14 04:37:27;;;;;;;27.20;14.60;;;;;;;;;;5073187;28;20040;-89
2022/11/14 04:39:57;;;;;;;25.90;13.77;;;;;;;;;;5072947;28;20052;-89
2022/11/14 04:42:24;;;;;;;26.27;16.27;;;;;;;;;;5073299;28;20408;-90
2022/11/14 04:44:52;;;;;;;40.45;22.50;;;;;;;;;;5072820;28;20258;-89
2022/11/14 04:47:19;;;;;;;30.48;18.80;;;;;;;;;;5077569;28;20120;-89
2022/11/14 04:49:46;;;;;;;27.48;15.98;;;;;;;;;;5082809;28;20058;-89
2022/11/14 04:52:13;;;;;;;25.80;14.35;;;;;;;;;;5073265;28;20044;-90
2022/11/14 04:54:41;;;;;;;25.27;12.52;;;;;;;;;;5073761;28;20054;-89
2022/11/14 04:57:08;;;;;;;24.55;14.02;;;;;;;;;;5072844;28;20070;-89
2022/11/14 04:59:35;;;;;;;34.80;13.75;;;;;;;;;;5073938;28;20052;-90
2022/11/14 05:02:02;;;;;;;28.38;14.45;;;;;;;;;;5072547;28;20439;-89
2022/11/14 05:04:30;;;;;;;28.25;14.18;;;;;;;;;;5072966;28;20404;-90
2022/11/14 05:06:57;;;;;;;25.50;13.38;;;;;;;;;;5072537;28;20050;-90
2022/11/14 05:09:24;;;;;;;22.88;13.52;;;;;;;;;;5073146;28;20052;-90
2022/11/14 05:11:53;;;;;;;21.33;12.77;;;;;;;;;;5073117;28;20048;-89
2022/11/14 05:14:21;;;;;;;22.02;12.50;;;;;;;;;;5072742;28;20059;-90
2022/11/14 05:16:48;;;;;;;21.45;12.68;;;;;;;;;;5073768;28;20041;-89
2022/11/14 05:19:15;;;;;;;24.90;13.73;;;;;;;;;;5072787;28;20516;-90
2022/11/14 05:21:42;;;;;;;25.95;13.20;;;;;;;;;;5072688;28;20051;-90
2022/11/14 05:24:10;;;;;;;24.63;13.43;;;;;;;;;;5073099;28;20049;-91
2022/11/14 05:26:38;;;;;;;22.77;13.18;;;;;;;;;;5073047;28;20114;-90
2022/11/14 05:29:05;;;;;;;26.83;13.48;;;;;;;;;;5072977;28;20071;-90
2022/11/14 05:31:35;;;;;;;33.58;13.20;;;;;;;;;;5072819;28;20045;-89
2022/11/14 05:34:02;;;;;;;28.70;13.85;;;;;;;;;;5072819;28;20055;-90
2022/11/14 05:36:30;;;;;;;35.90;15.63;;;;;;;;;;5073767;28;20045;-90
2022/11/14 05:38:57;;;;;;;21.23;12.55;;;;;;;;;;5072685;28;20138;-90
2022/11/14 05:41:24;;;;;;;28.88;13.13;;;;;;;;;;5073046;28;20126;-90
2022/11/14 05:43:51;;;;;;;30.10;14.85;;;;;;;;;;5072479;28;20076;-90
2022/11/14 05:46:18;;;;;;;35.60;14.20;;;;;;;;;;5072701;28;20049;-90
2022/11/14 05:48:46;;;;;;;27.67;14.40;;;;;;;;;;5072620;28;20056;-90
2022/11/14 05:51:13;;;;;;;28.95;13.43;;;;;;;;;;5073376;28;20051;-90
2022/11/14 05:53:40;;;;;;;23.15;13.25;;;;;;;;;;5072447;28;20052;-90
2022/11/14 05:56:10;;;;;;;27.50;13.23;;;;;;;;;;5072177;28;20056;-90
2022/11/14 05:58:37;;;;;;;21.33;12.38;;;;;;;;;;5073212;28;20431;-89
2022/11/14 06:01:06;;;;;;;29.95;14.50;;;;;;;;;;5076145;28;20408;-90
2022/11/14 06:03:34;;;;;;;26.88;15.63;;;;;;;;;;5076427;28;20060;-90
2022/11/14 06:06:02;;;;;;;27.13;14.07;;;;;;;;;;5076303;28;20053;-89
2022/11/14 06:08:30;;;;;;;29.63;15.50;;;;;;;;;;5076447;28;20044;-90
2022/11/14 06:11:02;;;;;;;35.53;14.52;;;;;;;;;;5075445;28;20078;-90
2022/11/14 06:13:29;;;;;;;46.30;16.17;;;;;;;;;;5076147;28;20058;-90
2022/11/14 06:16:00;;;;;;;46.55;14.45;;;;;;;;;;5075825;28;20044;-90
2022/11/14 06:18:28;;;;;;;32.97;16.05;;;;;;;;;;5075593;28;20045;-90
2022/11/14 06:20:59;;;;;;;33.28;16.33;;;;;;;;;;5076697;28;20056;-91
2022/11/14 06:23:27;;;;;;;30.25;16.65;;;;;;;;;;5076662;28;20052;-90
2022/11/14 06:26:01;;;;;;;34.17;16.80;;;;;;;;;;5076501;28;20048;-90
2022/11/14 06:28:29;;;;;;;26.10;15.60;;;;;;;;;;5075549;28;20079;-90
2022/11/14 06:31:00;;;;;;;32.15;15.88;;;;;;;;;;5076436;28;20052;-90
2022/11/14 06:33:28;;;;;;;48.08;16.88;;;;;;;;;;5075479;28;20496;-91
2022/11/14 06:35:59;;;;;;;41.10;17.00;;;;;;;;;;5075525;28;20040;-90
2022/11/14 06:38:27;;;;;;;37.88;17.75;;;;;;;;;;5075485;28;20059;-90
2022/11/14 06:41:21;;;;;;;40.20;17.35;;;;;;;;;;5076521;28;20087;-90
2022/11/14 06:43:49;;;;;;;36.38;17.35;;;;;;;;;;5073790;28;20056;-90
2022/11/14 06:46:18;;;;;;;34.75;17.55;;;;;;;;;;5075478;28;20048;-90
2022/11/14 06:48:46;;;;;;;32.70;17.30;;;;;;;;;;5075462;28;20382;-90
2022/11/14 06:51:14;;;;;;;30.63;17.55;;;;;;;;;;5076340;28;20055;-90
2022/11/14 06:53:42;;;;;;;38.38;17.00;;;;;;;;;;5076337;28;20059;-90
2022/11/14 06:56:10;;;;;;;30.95;15.48;;;;;;;;;;5075997;28;20481;-90
2022/11/14 06:58:39;;;;;;;39.05;17.73;;;;;;;;;;5074692;28;20044;-90
2022/11/14 07:01:17;;;;;;;39.95;18.63;;;;;;;;;;5074747;28;20070;-90
2022/11/14 07:03:44;;;;;;;35.08;17.75;;;;;;;;;;5075572;28;20053;-90
2022/11/14 07:06:13;;;;;;;33.25;17.50;;;;;;;;;;5075014;28;20045;-90
2022/11/14 07:08:40;;;;;;;39.20;18.10;;;;;;;;;;5075141;28;20045;-91
2022/11/14 07:11:21;;;;;;;33.75;17.70;;;;;;;;;;5086017;28;20056;-90
2022/11/14 07:13:52;;;;;;;45.47;19.48;;;;;;;;;;5090256;28;20051;-89
2022/11/14 07:16:20;;;;;;;35.80;18.40;;;;;;;;;;5083585;28;20048;-90
2022/11/14 07:18:47;;;;;;;32.42;18.23;;;;;;;;;;5078266;28;20048;-91
2022/11/14 07:21:14;;;;;;;33.80;18.17;;;;;;;;;;5095742;28;20052;-90
2022/11/14 07:23:42;;;;;;;30.15;16.77;;;;;;;;;;5077578;28;20483;-90
2022/11/14 07:26:10;;;;;;;31.83;17.52;;;;;;;;;;5078092;28;20052;-91
2022/11/14 07:28:39;;;;;;;37.65;18.55;;;;;;;;;;5078232;28;20048;-90
2022/11/14 07:31:07;;;;;;;35.40;17.25;;;;;;;;;;5077826;28;20055;-90
2022/11/14 07:33:35;;;;;;;35.78;17.90;;;;;;;;;;5078026;28;20044;-90
2022/11/14 07:36:02;;;;;;;33.40;17.65;;;;;;;;;;5077144;28;20072;-91
2022/11/14 07:38:33;;;;;;;36.28;18.85;;;;;;;;;;5095191;28;20063;-91
2022/11/14 07:41:01;;;;;;;29.30;17.15;;;;;;;;;;5093682;28;20052;-90
2022/11/14 07:43:28;;;;;;;35.08;18.55;;;;;;;;;;5077572;28;20044;-91
2022/11/14 07:46:03;;;;;;;38.25;19.75;;;;;;;;;;5077143;28;20139;-91
2022/11/14 07:48:31;;;;;;;40.20;22.13;;;;;;;;;;5094574;28;20047;-91
2022/11/14 07:51:03;;;;;;;36.78;19.38;;;;;;;;;;5077236;28;20135;-91
2022/11/14 07:53:30;;;;;;;42.13;18.80;;;;;;;;;;5077476;28;20399;-91
2022/11/14 07:56:01;;;;;;;46.83;20.10;;;;;;;;;;5095071;28;20135;-91
2022/11/14 07:58:29;;;;;;;36.72;18.52;;;;;;;;;;5077938;28;20131;-91
2022/11/14 08:01:00;;;;;;;38.28;20.25;;;;;;;;;;5094892;28;20087;-91
2022/11/14 08:03:28;;;;;;;39.42;20.02;;;;;;;;;;5095038;28;20055;-91
2022/11/14 08:06:06;;;;;;;40.05;19.52;;;;;;;;;;5094957;28;20062;-90
2022/11/14 08:08:33;;;;;;;42.50;19.23;;;;;;;;;;5077565;28;20436;-91
2022/11/14 08:11:01;;;;;;;39.88;18.65;;;;;;;;;;5094638;28;20059;-91
2022/11/14 08:13:28;;;;;;;40.85;18.73;;;;;;;;;;5076969;28;20052;-91
2022/11/14 08:16:03;;;;;;;34.65;18.33;;;;;;;;;;5077897;28;20431;-90
2022/11/14 08:18:38;;;;;;;32.10;19.15;;;;;;;;;;5078133;28;20059;-92
2022/11/14 08:21:05;;;;;;;40.95;24.45;;;;;;;;;;5094954;28;20059;-92
2022/11/14 08:23:33;;;;;;;33.85;20.20;;;;;;;;;;5077088;28;20555;-91
2022/11/14 08:26:00;;;;;;;37.10;18.98;;;;;;;;;;5076654;28;20047;-91
2022/11/14 08:28:27;;;;;;;37.80;18.55;;;;;;;;;;5076735;28;20051;-91
2022/11/14 08:31:00;;;;;;;33.05;18.42;;;;;;;;;;5076702;28;20444;-91
2022/11/14 08:33:27;;;;;;;40.90;19.30;;;;;;;;;;5076940;28;20052;-91
2022/11/14 08:35:54;;;;;;;38.83;19.30;;;;;;;;;;5076946;28;20048;-91
2022/11/14 08:38:22;;;;;;;33.33;18.58;;;;;;;;;;5094500;28;20047;-92
2022/11/14 08:40:49;;;;;;;40.55;19.73;;;;;;;;;;5076795;28;20052;-91
2022/11/14 08:43:16;;;;;;;46.28;21.08;;;;;;;;;;5077035;28;20044;-90
2022/11/14 08:45:43;;;;;;;43.45;19.85;;;;;;;;;;5076765;28;20396;-91
2022/11/14 08:48:11;;;;;;;48.67;20.80;;;;;;;;;;5077705;28;20048;-91
2022/11/14 08:50:38;;;;;;;52.97;19.58;;;;;;;;;;5077775;28;20044;-91
2022/11/14 08:53:06;;;;;;;36.55;17.73;;;;;;;;;;5081802;28;20051;-91
2022/11/14 08:55:33;;;;;;;48.78;21.27;;;;;;;;;;5081183;28;20082;-91
2022/11/14 08:58:01;;;;;;;50.15;22.63;;;;;;;;;;5081311;28;20094;-91
2022/11/14 09:00:28;;;;;;;46.45;21.50;;;;;;;;;;5098467;28;20048;-90
2022/11/14 09:02:58;;;;;;;42.15;20.77;;;;;;;;;;5080943;28;20512;-91
2022/11/14 09:05:25;;;;;;;48.40;21.88;;;;;;;;;;5082466;28;20062;-91
2022/11/14 09:07:53;;;;;;;44.08;22.77;;;;;;;;;;5099733;28;20044;-91
2022/11/14 09:10:20;;;;;;;51.72;22.33;;;;;;;;;;5081322;28;20048;-91
2022/11/14 09:12:47;;;;;;;45.92;22.10;;;;;;;;;;5079746;28;20067;-91
2022/11/14 09:15:14;;;;;;;50.63;23.35;;;;;;;;;;5079922;28;20101;-90
2022/11/14 09:17:42;;;;;;;55.95;23.77;;;;;;;;;;5080173;28;20491;-91
2022/11/14 09:20:09;;;;;;;58.05;23.42;;;;;;;;;;5080130;28;20048;-91
2022/11/14 09:22:37;;;;;;;71.60;27.45;;;;;;;;;;5079533;28;20044;-92
2022/11/14 09:25:04;;;;;;;82.05;31.65;;;;;;;;;;5076660;28;20139;-92
2022/11/14 09:27:31;;;;;;;102.97;39.78;;;;;;;;;;5094070;28;20142;-91
2022/11/14 09:29:59;;;;;;;80.80;31.20;;;;;;;;;;5076028;28;20044;-91
2022/11/14 09:32:26;;;;;;;78.35;28.65;;;;;;;;;;5076908;28;20054;-91
2022/11/14 09:34:53;;;;;;;62.85;23.92;;;;;;;;;;5081451;28;20051;-91
2022/11/14 09:37:20;;;;;;;76.47;22.50;;;;;;;;;;5101862;28;20411;-89
2022/11/14 09:39:48;;;;;;;57.28;17.35;;;;;;;;;;5081666;28;20491;-89
2022/11/14 09:42:15;;;;;;;71.63;19.27;;;;;;;;;;5080565;28;20047;-89
2022/11/14 09:44:52;;;;;;;47.08;13.18;;;;;;;;;;5098115;28;20070;-91
2022/11/14 09:47:22;;;;;;;55.58;11.93;;;;;;;;;;5080293;28;20060;-90
2022/11/14 09:49:51;;;;;;;32.05;11.32;;;;;;;;;;5080096;28;20048;-91
2022/11/14 09:52:21;;;;;;;26.30;10.65;;;;;;;;;;5080110;28;20054;-91
2022/11/14 09:54:52;;;;;;;31.38;10.70;;;;;;;;;;5080146;28;20048;-91
2022/11/14 09:57:20;;;;;;;56.45;13.07;;;;;;;;;;5080278;28;20048;-90
2022/11/14 09:59:48;;;;;;;26.70;8.82;;;;;;;;;;5079795;28;20052;-91
2022/11/14 10:02:21;;;;;;;17.38;8.32;;;;;;;;;;5079820;28;20060;-93
2022/11/14 10:04:54;;;;;;;17.77;7.40;;;;;;;;;;5080288;28;20550;-92
2022/11/14 10:07:36;;;;;;;12.35;6.50;;;;;;;;;;5080024;28;20044;-93
2022/11/14 10:10:16;;;;;;;12.13;6.30;;;;;;;;;;5079557;28;20094;-92
2022/11/14 10:12:56;;;;;;;13.30;6.18;;;;;;;;;;5079783;28;20055;-93
2022/11/14 10:15:23;;;;;;;8.55;5.45;;;;;;;;;;5080015;28;20051;-92
2022/11/14 10:17:57;;;;;;;;;;;;;;;;;;5080680;28;20492;-92
2022/11/14 10:20:30;;;;;;;13.65;6.45;;;;;;;;;;5096008;28;19924;-91
2022/11/14 10:23:03;;;;;;;12.07;6.50;;;;;;;;;;5079104;28;20048;-92
2022/11/14 10:25:53;;;;;;;10.17;6.80;;;;;;;;;;5079226;28;20059;-91
2022/11/14 10:28:28;;;;;;;17.65;7.30;;;;;;;;;;5079388;28;20047;-92
2022/11/14 10:31:04;;;;;;;16.83;6.20;;;;;;;;;;5079406;28;20074;-92
2022/11/14 10:33:49;;;;;;;10.80;5.10;;;;;;;;;;5079185;28;20058;-91
2022/11/14 10:36:29;;;;;;;19.23;6.20;;;;;;;;;;5079155;28;20048;-91
2022/11/14 10:39:17;;;;;;;7.25;4.18;;;;;;;;;;5079212;28;20055;-91
2022/11/14 10:41:45;;;;;;;4.03;3.63;;;;;;;;;;5096500;28;20492;-91
2022/11/14 10:44:34;;;;;;;10.43;4.07;;;;;;;;;;5081986;28;20504;-91
2022/11/14 10:47:03;;;;;;;7.32;4.00;;;;;;;;;;5083076;28;20052;-91
2022/11/14 10:49:31;;;;;;;18.30;3.75;;;;;;;;;;5082464;28;20131;-92
2022/11/14 10:52:01;;;;;;;13.85;4.70;;;;;;;;;;5081265;28;20060;-92
2022/11/14 10:54:47;;;;;;;7.63;3.53;;;;;;;;;;5080637;28;20127;-91
2022/11/14 10:57:16;;;;;;;10.70;3.50;;;;;;;;;;5081036;28;20044;-92
2022/11/14 10:59:43;;;;;;;16.90;3.75;;;;;;;;;;5080961;28;20151;-91
2022/11/14 11:02:11;;;;;;;12.85;3.90;;;;;;;;;;5081254;28;20054;-91
2022/11/14 11:04:42;;;;;;;20.52;4.30;;;;;;;;;;5081059;28;20131;-92
2022/11/14 11:11:28;;;;;;;10.38;3.70;;;;;;;;;;5081048;28;20085;-90
2022/11/14 11:12:47;;;;;;;28.92;5.90;;;;;;;;;;5099460;28;20411;-92
2022/11/14 11:15:17;;;;;;;34.50;6.15;;;;;;;;;;5081763;28;20459;-91
2022/11/14 11:17:53;;;;;;;16.42;5.50;;;;;;;;;;5080975;28;20058;-91
2022/11/14 11:20:41;;;;;;;13.35;4.25;;;;;;;;;;5081669;28;20107;-93
2022/11/14 11:23:11;;;;;;;15.85;4.32;;;;;;;;;;5081565;28;20051;-94
2022/11/14 11:25:39;;;;;;;15.60;4.25;;;;;;;;;;5080612;28;20059;-92
2022/11/14 11:28:16;;;;;;;4.07;2.90;;;;;;;;;;5078802;28;20052;-93
2022/11/14 11:30:55;;;;;;;13.80;3.65;;;;;;;;;;5078657;28;20236;-92
2022/11/14 11:33:24;;;;;;;4.22;3.20;;;;;;;;;;5078399;28;20052;-93
2022/11/14 11:35:53;;;;;;;7.40;3.30;;;;;;;;;;5078021;28;20055;-93
2022/11/14 11:38:21;;;;;;;10.07;3.33;;;;;;;;;;5077986;28;20415;-92
2022/11/14 11:40:50;;;;;;;5.18;3.40;;;;;;;;;;5077837;28;20067;-93
2022/11/14 11:43:25;;;;;;;5.35;3.13;;;;;;;;;;5078037;28;20044;-92
2022/11/14 11:46:13;;;;;;;8.20;3.72;;;;;;;;;;5079931;28;20052;-93
2022/11/14 11:48:40;;;;;;;3.33;2.55;;;;;;;;;;5078824;28;20044;-92
2022/11/14 11:51:18;;;;;;;8.75;2.85;;;;;;;;;;5078255;28;20048;-93
2022/11/14 11:53:54;;;;;;;6.25;2.42;;;;;;;;;;5078819;28;20070;-95
2022/11/14 11:56:24;;;;;;;14.02;3.78;;;;;;;;;;5078960;28;20471;-92
2022/11/14 11:58:55;;;;;;;12.50;3.28;;;;;;;;;;5078033;28;20055;-96
2022/11/14 12:01:29;;;;;;;4.40;2.70;;;;;;;;;;5084636;28;20070;-93
2022/11/14 12:03:57;;;;;;;4.32;2.50;;;;;;;;;;5094042;28;20050;-93
2022/11/14 12:06:27;;;;;;;4.40;2.42;;;;;;;;;;5081539;28;20531;-92
2022/11/14 12:09:14;;;;;;;5.68;2.60;;;;;;;;;;5078247;28;20048;-94
2022/11/14 12:11:45;;;;;;;3.08;2.20;;;;;;;;;;5078679;28;20060;-94
2022/11/14 12:14:30;;;;;;;2.58;2.38;;;;;;;;;;5077806;28;20058;-94
2022/11/14 12:17:16;;;;;;;5.30;2.85;;;;;;;;;;5077691;28;20040;-95
2022/11/14 12:19:52;;;;;;;11.40;2.50;;;;;;;;;;5077394;28;20209;-94
2022/11/14 12:22:26;;;;;;;9.32;2.97;;;;;;;;;;5077636;28;20094;-91
2022/11/14 12:24:59;;;;;;;2.60;2.40;;;;;;;;;;5080859;28;20054;-94
2022/11/14 12:27:35;;;;;;;2.75;2.55;;;;;;;;;;5077846;28;20431;-93
2022/11/14 12:30:09;;;;;;;2.50;2.35;;;;;;;;;;5078076;28;20064;-94
2022/11/14 12:32:48;;;;;;;3.97;2.47;;;;;;;;;;5077174;28;20510;-96
2022/11/14 12:35:21;;;;;;;2.70;2.50;;;;;;;;;;5078271;28;20044;-96
2022/11/14 12:37:50;;;;;;;4.65;2.97;;;;;;;;;;5080365;28;20067;-95
2022/11/14 12:40:33;;;;;;;2.72;2.53;;;;;;;;;;5078017;28;20044;-95
2022/11/14 12:43:02;;;;;;;3.35;3.05;;;;;;;;;;5079583;28;20048;-96
2022/11/14 12:45:41;;;;;;;5.82;3.00;;;;;;;;;;5079808;28;20147;-96
2022/11/14 12:48:27;;;;;;;2.85;2.65;;;;;;;;;;5078360;28;20048;-93
2022/11/14 12:50:56;;;;;;;2.92;2.72;;;;;;;;;;5078799;28;20054;-94
2022/11/14 12:53:35;;;;;;;3.50;3.10;;;;;;;;;;5079155;28;20472;-95
2022/11/14 12:56:12;;;;;;;8.43;3.60;;;;;;;;;;5078736;28;20040;-96
2022/11/14 12:58:45;;;;;;;3.45;2.78;;;;;;;;;;5078663;28;20044;-92
2022/11/14 13:01:19;;;;;;;3.22;3.03;;;;;;;;;;5081611;28;20517;-91
2022/11/14 13:03:55;;;;;;;;;;;;;;;;;;5082659;28;20051;-94
2022/11/14 13:07:03;;;;;;;8.15;3.17;;;;;;;;;;5104887;28;19974;-92
2022/11/14 13:09:39;;;;;;;5.38;2.70;;;;;;;;;;5080153;28;20044;-93
2022/11/14 13:23:53;;;;;;;513.63;77.90;;;;;;;;;;5093938;28;20051;-92
2022/11/14 13:26:20;;;;;;;228.50;38.70;;;;;;;;;;5076317;28;20056;-92
2022/11/14 13:28:49;;;;;;;89.60;20.40;;;;;;;;;;5076828;28;20055;-93
2022/11/14 13:31:16;;;;;;;88.45;18.48;;;;;;;;;;5076403;28;20425;-96
2022/11/14 13:33:45;;;;;;;651.05;284.55;;;;;;;;;;5075327;28;20616;-94
2022/11/14 13:36:31;;;;;;;124.15;41.60;;;;;;;;;;5075862;28;20423;-94
2022/11/14 13:39:01;;;;;;;134.27;30.27;;;;;;;;;;5076135;28;20054;-92
2022/11/14 13:41:37;;;;;;;97.22;23.60;;;;;;;;;;5075829;28;20144;-95
2022/11/14 13:44:23;;;;;;;19.42;6.47;;;;;;;;;;5077826;28;20506;-93
2022/11/14 13:46:50;;;;;;;3.92;2.70;;;;;;;;;;5077394;28;20063;-96
2022/11/14 13:49:32;;;;;;;5.07;3.67;;;;;;;;;;5076072;28;20051;-92
2022/11/14 13:51:59;;;;;;;12.77;4.22;;;;;;;;;;5076218;28;20051;-92
2022/11/14 13:54:28;;;;;;;5.43;2.92;;;;;;;;;;5076391;28;20516;-94
2022/11/14 13:57:01;;;;;;;3.88;2.92;;;;;;;;;;5076205;28;20080;-94
2022/11/14 13:59:40;;;;;;;3.28;2.80;;;;;;;;;;5077313;28;20488;-96
2022/11/14 14:02:10;;;;;;;3.15;2.90;;;;;;;;;;5076172;28;20062;-94
2022/11/14 14:04:43;;;;;;;6.68;3.33;;;;;;;;;;5075737;28;20082;-94
2022/11/14 14:07:17;;;;;;;6.45;3.20;;;;;;;;;;5076612;28;20159;-94
2022/11/14 14:09:45;;;;;;;3.85;3.55;;;;;;;;;;5075693;28;20055;-95
2022/11/14 14:12:30;;;;;;;10.10;4.22;;;;;;;;;;5072052;28;20052;-93
2022/11/14 14:15:11;;;;;;;16.73;5.25;;;;;;;;;;5072454;28;20051;-94
2022/11/14 14:17:42;;;;;;;28.63;6.28;;;;;;;;;;5072233;28;20051;-92
2022/11/14 14:20:28;;;;;;;52.25;8.45;;;;;;;;;;5073536;28;20048;-93
2022/11/14 14:23:08;;;;;;;20.42;5.38;;;;;;;;;;5087168;28;20045;-93
2022/11/14 14:25:51;;;;;;;16.50;5.00;;;;;;;;;;5076669;28;20489;-94
2022/11/14 14:28:23;;;;;;;14.30;5.05;;;;;;;;;;5076150;28;20072;-95
2022/11/14 14:31:22;;;;;;;8.73;4.80;;;;;;;;;;5076831;28;20059;-93
2022/11/14 14:33:50;;;;;;;21.00;6.25;;;;;;;;;;5060377;28;20443;-93
2022/11/14 14:36:21;;;;;;;9.50;4.35;;;;;;;;;;5075721;28;20053;-92
2022/11/14 14:38:49;;;;;;;25.60;6.97;;;;;;;;;;5075256;28;20044;-93
2022/11/14 14:41:18;;;;;;;72.32;12.00;;;;;;;;;;5075393;28;20055;-92
2022/11/14 14:43:50;;;;;;;61.65;10.98;;;;;;;;;;5075360;28;20083;-92
2022/11/14 14:46:25;;;;;;;37.53;8.43;;;;;;;;;;5075378;28;20053;-92
2022/11/14 14:48:52;;;;;;;106.40;13.93;;;;;;;;;;5075114;28;20044;-91
2022/11/14 14:51:29;;;;;;;63.60;11.65;;;;;;;;;;5075095;28;20054;-90
2022/11/14 14:53:56;;;;;;;39.83;7.13;;;;;;;;;;5074925;28;20040;-92
2022/11/14 14:56:24;;;;;;;20.33;6.35;;;;;;;;;;5075342;28;20055;-92